createdAt,value
2017-10-17T00:00:50.574Z,80.90
2017-10-17T00:01:50.568Z,80.71
2017-10-17T00:02:50.567Z,80.71
2017-10-17T00:03:50.567Z,80.90
2017-10-17T00:04:50.564Z,80.71
2017-10-17T00:05:50.565Z,80.71
2017-10-17T00:06:50.566Z,80.90
2017-10-17T00:07:50.564Z,81.09
2017-10-17T00:08:50.563Z,81.48
2017-10-17T00:09:50.570Z,81.19
2017-10-17T00:10:50.566Z,81.38
2017-10-17T00:11:50.566Z,81.57
2017-10-17T00:12:50.565Z,81.67
2017-10-17T00:13:50.565Z,82.43
2017-10-17T00:14:50.562Z,82.24
2017-10-17T00:15:50.563Z,82.15
2017-10-17T00:16:50.561Z,82.24
2017-10-17T00:17:50.556Z,82.15
2017-10-17T00:18:50.557Z,82.53
2017-10-17T00:19:50.554Z,82.24
2017-10-17T00:20:50.555Z,82.15
2017-10-17T00:21:50.555Z,82.24
2017-10-17T00:22:50.554Z,82.34
2017-10-17T00:23:50.553Z,82.43
2017-10-17T00:24:50.553Z,82.53
2017-10-17T00:25:50.554Z,82.24
2017-10-17T00:26:50.560Z,82.15
2017-10-17T00:27:50.555Z,82.15
2017-10-17T00:28:50.552Z,82.05
2017-10-17T00:29:50.548Z,82.40
2017-10-17T00:30:50.547Z,82.59
2017-10-17T00:31:50.546Z,82.10
2017-10-17T00:32:50.546Z,82.15
2017-10-17T00:33:50.551Z,82.92
2017-10-17T00:34:50.551Z,82.43
2017-10-17T00:35:50.555Z,82.20
2017-10-17T00:36:50.546Z,82.92
2017-10-17T00:37:50.545Z,82.68
2017-10-17T00:38:50.546Z,82.87
2017-10-17T00:39:50.544Z,82.87
2017-10-17T00:40:50.543Z,83.54
2017-10-17T00:41:50.539Z,83.26
2017-10-17T00:42:50.539Z,83.07
2017-10-17T00:43:50.538Z,83.16
2017-10-17T00:44:50.535Z,83.16
2017-10-17T00:45:50.535Z,83.26
2017-10-17T00:46:50.535Z,83.26
2017-10-17T00:47:50.533Z,83.16
2017-10-17T00:48:50.533Z,83.07
2017-10-17T00:49:50.537Z,83.36
2017-10-17T00:50:50.536Z,83.36
2017-10-17T00:51:50.534Z,83.26
2017-10-17T00:52:50.532Z,83.26
2017-10-17T00:53:50.531Z,82.97
2017-10-17T00:54:50.531Z,83.74
2017-10-17T00:55:50.537Z,83.26
2017-10-17T00:56:50.530Z,83.16
2017-10-17T00:57:50.525Z,83.45
2017-10-17T00:58:50.524Z,83.93
2017-10-17T00:59:50.524Z,83.84
2017-10-17T01:00:50.525Z,83.07
2017-10-17T01:01:50.521Z,83.93
2017-10-17T01:02:50.519Z,83.74
2017-10-17T01:03:50.521Z,83.84
2017-10-17T01:04:50.517Z,83.64
2017-10-17T01:05:50.521Z,83.45
2017-10-17T01:06:50.521Z,83.93
2017-10-17T01:07:50.520Z,83.74
2017-10-17T01:08:50.519Z,84.22
2017-10-17T01:09:50.518Z,83.31
2017-10-17T01:10:50.516Z,83.31
2017-10-17T01:11:50.515Z,83.70
2017-10-17T01:12:50.515Z,83.89
2017-10-17T01:13:50.509Z,83.80
2017-10-17T01:14:50.510Z,84.37
2017-10-17T01:15:50.508Z,84.08
2017-10-17T01:16:50.507Z,84.66
2017-10-17T01:17:50.505Z,84.56
2017-10-17T01:18:50.505Z,84.37
2017-10-17T01:19:50.504Z,84.56
2017-10-17T01:20:50.502Z,84.66
2017-10-17T01:21:50.506Z,84.66
2017-10-17T01:22:50.505Z,84.75
2017-10-17T01:23:50.504Z,84.75
2017-10-17T01:24:50.502Z,84.56
2017-10-17T01:25:50.502Z,84.47
2017-10-17T01:26:50.500Z,84.56
2017-10-17T01:27:50.499Z,84.56
2017-10-17T01:28:50.499Z,84.56
2017-10-17T01:29:50.495Z,84.66
2017-10-17T01:30:50.493Z,84.27
2017-10-17T01:31:50.492Z,84.75
2017-10-17T01:32:50.490Z,84.56
2017-10-17T01:33:50.494Z,84.47
2017-10-17T01:34:50.494Z,84.56
2017-10-17T01:35:50.492Z,84.56
2017-10-17T01:36:50.489Z,84.66
2017-10-17T01:37:50.484Z,84.66
2017-10-17T01:38:50.488Z,84.37
2017-10-17T01:39:50.483Z,84.95
2017-10-17T01:40:50.483Z,85.04
2017-10-17T01:41:50.481Z,85.14
2017-10-17T01:42:50.481Z,85.42
2017-10-17T01:43:50.479Z,85.71
2017-10-17T01:44:50.478Z,85.24
2017-10-17T01:45:50.481Z,85.42
2017-10-17T01:46:50.483Z,85.42
2017-10-17T01:47:50.479Z,85.24
2017-10-17T01:48:50.477Z,85.91
2017-10-17T01:49:50.477Z,85.81
2017-10-17T01:50:50.475Z,85.62
2017-10-17T01:51:50.475Z,85.42
2017-10-17T01:52:50.473Z,85.81
2017-10-17T01:53:50.468Z,85.62
2017-10-17T01:54:50.470Z,85.33
2017-10-17T01:55:50.466Z,85.91
2017-10-17T01:56:50.464Z,86.00
2017-10-17T01:57:50.463Z,86.10
2017-10-17T01:58:50.462Z,86.10
2017-10-17T01:59:50.462Z,86.10
2017-10-17T02:00:50.460Z,86.19
2017-10-17T02:01:50.463Z,86.10
2017-10-17T02:02:50.461Z,86.19
2017-10-17T02:03:50.461Z,86.38
2017-10-17T02:04:50.459Z,86.38
2017-10-17T02:05:50.459Z,86.34
2017-10-17T02:06:50.457Z,86.44
2017-10-17T02:07:50.457Z,86.34
2017-10-17T02:08:50.455Z,86.25
2017-10-17T02:09:50.450Z,86.72
2017-10-17T02:10:50.448Z,87.40
2017-10-17T02:11:50.448Z,87.59
2017-10-17T02:12:50.446Z,88.07
2017-10-17T02:13:50.445Z,87.98
2017-10-17T02:14:50.446Z,88.26
2017-10-17T02:15:50.442Z,88.17
2017-10-17T02:16:50.441Z,88.17
2017-10-17T02:17:50.443Z,88.35
2017-10-17T02:18:50.443Z,88.07
2017-10-17T02:19:50.441Z,87.88
2017-10-17T02:20:50.439Z,88.17
2017-10-17T02:21:50.438Z,88.07
2017-10-17T02:22:50.438Z,88.07
2017-10-17T02:23:50.436Z,88.45
2017-10-17T02:24:50.435Z,88.26
2017-10-17T02:25:50.430Z,88.84
2017-10-17T02:26:50.429Z,88.17
2017-10-17T02:27:50.428Z,88.74
2017-10-17T02:28:50.425Z,89.32
2017-10-17T02:29:50.425Z,89.03
2017-10-17T02:30:50.427Z,88.98
2017-10-17T02:31:50.422Z,88.60
2017-10-17T02:32:50.421Z,89.47
2017-10-17T02:33:50.424Z,89.56
2017-10-17T02:34:50.422Z,89.27
2017-10-17T02:35:50.422Z,89.56
2017-10-17T02:36:50.420Z,89.94
2017-10-17T02:37:50.424Z,89.94
2017-10-17T02:38:50.418Z,90.14
2017-10-17T02:39:50.419Z,90.71
2017-10-17T02:40:50.416Z,90.81
2017-10-17T02:41:50.410Z,91.28
2017-10-17T02:42:50.408Z,91.09
2017-10-17T02:43:50.407Z,90.71
2017-10-17T02:44:50.407Z,90.52
2017-10-17T02:45:50.410Z,90.42
2017-10-17T02:46:50.403Z,90.52
2017-10-17T02:47:50.403Z,90.52
2017-10-17T02:48:50.401Z,91.19
2017-10-17T02:49:50.403Z,91.00
2017-10-17T02:50:50.401Z,91.67
2017-10-17T02:51:50.401Z,91.91
2017-10-17T02:52:50.400Z,91.77
2017-10-17T02:53:50.402Z,92.39
2017-10-17T02:54:50.400Z,92.10
2017-10-17T02:55:50.396Z,92.39
2017-10-17T02:56:50.393Z,92.39
2017-10-17T02:57:50.388Z,92.68
2017-10-17T02:58:50.387Z,92.77
2017-10-17T02:59:50.385Z,92.77
2017-10-17T03:00:50.383Z,92.77
2017-10-17T03:01:50.382Z,92.49
2017-10-17T03:02:50.380Z,92.39
2017-10-17T03:03:50.380Z,92.77
2017-10-17T03:04:50.376Z,92.39
2017-10-17T03:05:50.379Z,93.16
2017-10-17T03:06:50.379Z,93.26
2017-10-17T03:07:50.378Z,93.44
2017-10-17T03:08:50.375Z,93.35
2017-10-17T03:09:50.374Z,94.31
2017-10-17T03:10:50.373Z,93.93
2017-10-17T03:11:50.371Z,93.63
2017-10-17T03:12:50.368Z,94.21
2017-10-17T03:13:50.364Z,94.12
2017-10-17T03:14:50.363Z,94.21
2017-10-17T03:15:50.361Z,93.93
2017-10-17T03:16:50.360Z,94.21
2017-10-17T03:17:50.358Z,93.54
2017-10-17T03:18:50.356Z,94.12
2017-10-17T03:19:50.354Z,93.35
2017-10-17T03:20:50.353Z,93.26
2017-10-17T03:21:50.355Z,93.35
2017-10-17T03:22:50.357Z,93.44
2017-10-17T03:23:50.352Z,93.44
2017-10-17T03:24:50.351Z,93.83
2017-10-17T03:25:50.348Z,93.73
2017-10-17T03:26:50.348Z,93.63
2017-10-17T03:27:50.346Z,93.63
2017-10-17T03:28:50.345Z,93.35
2017-10-17T03:29:50.338Z,93.44
2017-10-17T03:30:50.339Z,93.16
2017-10-17T03:31:50.336Z,93.73
2017-10-17T03:32:50.334Z,94.21
2017-10-17T03:33:50.333Z,94.02
2017-10-17T03:34:50.330Z,94.12
2017-10-17T03:35:50.336Z,93.63
2017-10-17T03:36:50.327Z,94.35
2017-10-17T03:37:50.335Z,94.69
2017-10-17T03:38:50.328Z,95.03
2017-10-17T03:39:50.326Z,94.64
2017-10-17T03:40:50.324Z,95.03
2017-10-17T03:41:50.318Z,94.74
2017-10-17T03:42:50.318Z,95.03
2017-10-17T03:43:50.315Z,94.84
2017-10-17T03:44:50.314Z,94.64
2017-10-17T03:45:50.317Z,94.64
2017-10-17T03:46:50.316Z,95.03
2017-10-17T03:47:50.314Z,95.22
2017-10-17T03:48:50.312Z,94.93
2017-10-17T03:49:50.310Z,95.31
2017-10-17T03:50:50.309Z,95.12
2017-10-17T03:51:50.307Z,95.22
2017-10-17T03:52:50.305Z,95.22
2017-10-17T03:53:50.299Z,95.31
2017-10-17T03:54:50.299Z,95.22
2017-10-17T03:55:50.297Z,95.89
2017-10-17T03:56:50.293Z,95.41
2017-10-17T03:57:50.292Z,95.22
2017-10-17T03:58:50.290Z,95.31
2017-10-17T03:59:50.289Z,95.22
2017-10-17T04:00:50.286Z,95.41
2017-10-17T04:01:50.289Z,95.41
2017-10-17T04:02:50.287Z,95.98
2017-10-17T04:03:50.290Z,95.98
2017-10-17T04:04:50.288Z,95.51
2017-10-17T04:05:50.281Z,95.51
2017-10-17T04:06:50.280Z,95.89
2017-10-17T04:07:50.279Z,95.89
2017-10-17T04:08:50.277Z,95.79
2017-10-17T04:09:50.270Z,96.08
2017-10-17T04:10:50.269Z,95.70
2017-10-17T04:11:50.268Z,96.47
2017-10-17T04:12:50.268Z,96.37
2017-10-17T04:13:50.269Z,96.08
2017-10-17T04:14:50.274Z,96.56
2017-10-17T04:15:50.262Z,97.33
2017-10-17T04:16:50.259Z,97.23
2017-10-17T04:17:50.261Z,96.75
2017-10-17T04:18:50.259Z,96.89
2017-10-17T04:19:50.258Z,97.18
2017-10-17T04:20:50.255Z,96.99
2017-10-17T04:21:50.254Z,96.80
2017-10-17T04:22:50.252Z,98.05
2017-10-17T04:23:50.251Z,97.75
2017-10-17T04:24:50.251Z,98.05
2017-10-17T04:25:50.245Z,97.95
2017-10-17T04:26:50.241Z,98.05
2017-10-17T04:27:50.240Z,98.91
2017-10-17T04:28:50.237Z,98.81
2017-10-17T04:29:50.236Z,98.81
2017-10-17T04:30:50.234Z,98.91
2017-10-17T04:31:50.232Z,98.43
2017-10-17T04:32:50.229Z,98.71
2017-10-17T04:33:50.230Z,98.62
2017-10-17T04:34:50.229Z,98.52
2017-10-17T04:35:50.229Z,98.71
2017-10-17T04:36:50.225Z,98.71
2017-10-17T04:37:50.223Z,99.10
2017-10-17T04:38:50.224Z,98.91
2017-10-17T04:39:50.222Z,99.10
2017-10-17T04:40:50.216Z,99.33
2017-10-17T04:41:50.212Z,99.05
2017-10-17T04:42:50.210Z,99.62
2017-10-17T04:43:50.209Z,99.81
2017-10-17T04:44:50.205Z,99.99
2017-10-17T04:45:50.208Z,99.99
2017-10-17T04:46:50.205Z,99.72
2017-10-17T04:47:50.205Z,99.81
2017-10-17T04:48:50.201Z,99.99
2017-10-17T04:49:50.195Z,99.99
2017-10-17T04:50:50.194Z,99.99
2017-10-17T04:51:50.193Z,99.99
2017-10-17T04:52:50.189Z,99.99
2017-10-17T04:53:50.187Z,99.72
2017-10-17T04:54:50.185Z,99.99
2017-10-17T04:55:50.185Z,99.99
2017-10-17T04:56:50.180Z,99.99
2017-10-17T04:57:50.183Z,99.99
2017-10-17T04:58:50.182Z,99.99
2017-10-17T04:59:50.179Z,99.99
2017-10-17T05:00:50.177Z,99.99
2017-10-17T05:01:50.175Z,99.99
2017-10-17T05:02:50.173Z,99.99
2017-10-17T05:03:50.172Z,99.99
2017-10-17T05:04:50.167Z,99.99
2017-10-17T05:05:50.162Z,99.99
2017-10-17T05:06:50.159Z,99.99
2017-10-17T05:07:50.159Z,99.99
2017-10-17T05:08:50.155Z,99.99
2017-10-17T05:09:50.152Z,99.99
2017-10-17T05:10:50.151Z,99.99
2017-10-17T05:11:50.149Z,99.99
2017-10-17T05:12:50.148Z,99.99
2017-10-17T05:13:50.150Z,99.99
2017-10-17T05:14:50.146Z,99.99
2017-10-17T05:15:50.145Z,99.99
2017-10-17T05:16:50.142Z,99.99
2017-10-17T05:17:50.139Z,99.99
2017-10-17T05:18:50.138Z,99.99
2017-10-17T05:19:50.136Z,99.99
2017-10-17T05:20:50.133Z,99.99
2017-10-17T05:21:50.125Z,99.99
2017-10-17T05:22:50.125Z,99.99
2017-10-17T05:23:50.124Z,99.99
2017-10-17T05:24:50.122Z,99.99
2017-10-17T05:25:50.117Z,99.99
2017-10-17T05:26:50.116Z,99.99
2017-10-17T05:27:50.112Z,99.99
2017-10-17T05:28:50.110Z,99.99
2017-10-17T05:29:50.112Z,99.99
2017-10-17T05:30:50.109Z,99.99
2017-10-17T05:31:50.108Z,99.99
2017-10-17T05:32:50.105Z,99.99
2017-10-17T05:33:50.104Z,99.99
2017-10-17T05:34:50.100Z,99.99
2017-10-17T05:35:50.099Z,99.99
2017-10-17T05:36:50.096Z,99.99
2017-10-17T05:37:50.089Z,99.99
2017-10-17T05:38:50.088Z,99.99
2017-10-17T05:39:50.084Z,99.99
2017-10-17T05:40:50.082Z,99.99
2017-10-17T05:41:50.079Z,99.99
2017-10-17T05:42:50.078Z,99.99
2017-10-17T05:43:50.076Z,99.99
2017-10-17T05:44:50.071Z,99.99
2017-10-17T05:45:50.081Z,99.99
2017-10-17T05:46:50.072Z,99.99
2017-10-17T05:47:50.073Z,99.99
2017-10-17T05:48:50.067Z,99.99
2017-10-17T05:49:50.061Z,99.99
2017-10-17T05:50:50.058Z,99.99
2017-10-17T05:51:50.056Z,99.99
2017-10-17T05:52:50.053Z,99.99
2017-10-17T05:53:50.053Z,99.99
2017-10-17T05:54:50.053Z,99.99
2017-10-17T05:55:50.051Z,99.99
2017-10-17T05:56:50.046Z,99.99
2017-10-17T05:57:50.044Z,99.99
2017-10-17T05:58:50.041Z,99.99
2017-10-17T05:59:50.040Z,99.99
2017-10-17T06:00:50.036Z,99.99
2017-10-17T06:01:50.030Z,99.99
2017-10-17T06:02:50.027Z,99.99
2017-10-17T06:03:50.025Z,99.99
2017-10-17T06:04:50.024Z,99.99
2017-10-17T06:05:50.021Z,99.99
2017-10-17T06:06:50.018Z,99.99
2017-10-17T06:07:50.017Z,99.99
2017-10-17T06:08:50.013Z,99.99
2017-10-17T06:09:50.016Z,99.99
2017-10-17T06:10:50.012Z,99.99
2017-10-17T06:11:50.011Z,99.99
2017-10-17T06:12:50.006Z,99.99
2017-10-17T06:13:50.006Z,99.99
2017-10-17T06:14:50.003Z,99.99
2017-10-17T06:15:50.000Z,99.99
2017-10-17T06:16:50.004Z,99.99
2017-10-17T06:17:49.991Z,99.99
2017-10-17T06:18:49.988Z,99.99
2017-10-17T06:19:49.987Z,99.99
2017-10-17T06:20:49.982Z,99.99
2017-10-17T06:21:49.981Z,99.99
2017-10-17T06:22:49.978Z,99.99
2017-10-17T06:23:49.987Z,99.99
2017-10-17T06:24:49.979Z,99.99
2017-10-17T06:25:49.976Z,99.99
2017-10-17T06:26:49.973Z,99.99
2017-10-17T06:27:49.972Z,99.99
2017-10-17T06:28:49.969Z,99.99
2017-10-17T06:29:49.966Z,99.99
2017-10-17T06:30:49.964Z,99.99
2017-10-17T06:31:49.962Z,99.99
2017-10-17T06:32:49.960Z,99.99
2017-10-17T06:33:49.953Z,99.99
2017-10-17T06:34:49.951Z,99.99
2017-10-17T06:35:49.950Z,99.99
2017-10-17T06:36:49.969Z,99.99
2017-10-17T06:37:49.945Z,99.99
2017-10-17T06:38:49.942Z,99.99
2017-10-17T06:39:49.941Z,99.99
2017-10-17T06:40:49.939Z,99.99
2017-10-17T06:41:49.941Z,99.99
2017-10-17T06:42:49.938Z,99.99
2017-10-17T06:43:49.937Z,99.99
2017-10-17T06:44:49.935Z,99.99
2017-10-17T06:45:49.933Z,99.99
2017-10-17T06:46:49.931Z,99.99
2017-10-17T06:47:49.934Z,99.99
2017-10-17T06:48:49.927Z,99.99
2017-10-17T06:49:49.921Z,99.99
2017-10-17T06:50:49.921Z,99.99
2017-10-17T06:51:49.919Z,99.99
2017-10-17T06:52:49.917Z,99.34
2017-10-17T06:53:49.914Z,99.63
2017-10-17T06:54:49.920Z,99.63
2017-10-17T06:55:49.914Z,99.34
2017-10-17T06:56:49.909Z,99.82
2017-10-17T06:57:49.911Z,99.05
2017-10-17T06:58:49.910Z,98.76
2017-10-17T06:59:49.909Z,99.15
2017-10-17T07:00:49.906Z,99.15
2017-10-17T07:01:49.905Z,98.67
2017-10-17T07:02:49.903Z,98.38
2017-10-17T07:03:49.902Z,98.86
2017-10-17T07:04:49.898Z,98.28
2017-10-17T07:05:49.893Z,98.28
2017-10-17T07:06:49.892Z,98.10
2017-10-17T07:07:49.890Z,98.28
2017-10-17T07:08:49.888Z,98.24
2017-10-17T07:09:49.887Z,98.57
2017-10-17T07:10:49.889Z,99.01
2017-10-17T07:11:49.883Z,98.86
2017-10-17T07:12:49.880Z,98.10
2017-10-17T07:13:49.884Z,98.86
2017-10-17T07:14:49.881Z,98.72
2017-10-17T07:15:49.881Z,98.91
2017-10-17T07:16:49.878Z,99.01
2017-10-17T07:17:49.876Z,98.33
2017-10-17T07:18:49.877Z,98.14
2017-10-17T07:19:49.874Z,98.14
2017-10-17T07:20:49.876Z,97.95
2017-10-17T07:21:49.866Z,98.14
2017-10-17T07:22:49.865Z,98.33
2017-10-17T07:23:49.863Z,98.43
2017-10-17T07:24:49.862Z,98.33
2017-10-17T07:25:49.860Z,98.14
2017-10-17T07:26:49.858Z,98.14
2017-10-17T07:27:49.857Z,97.66
2017-10-17T07:28:49.855Z,97.66
2017-10-17T07:29:49.857Z,97.56
2017-10-17T07:30:49.860Z,97.95
2017-10-17T07:31:49.855Z,97.95
2017-10-17T07:32:49.851Z,97.85
2017-10-17T07:33:49.850Z,97.56
2017-10-17T07:34:49.851Z,97.66
2017-10-17T07:35:49.849Z,97.61
2017-10-17T07:36:49.848Z,97.28
2017-10-17T07:37:49.846Z,97.09
2017-10-17T07:38:49.841Z,97.33
2017-10-17T07:39:49.839Z,97.14
2017-10-17T07:40:49.837Z,96.61
2017-10-17T07:41:49.838Z,96.51
2017-10-17T07:42:49.835Z,97.28
2017-10-17T07:43:49.835Z,96.99
2017-10-17T07:44:49.832Z,97.28
2017-10-17T07:45:49.837Z,96.99
2017-10-17T07:46:49.836Z,97.56
2017-10-17T07:47:49.835Z,97.28
2017-10-17T07:48:49.834Z,96.70
2017-10-17T07:49:49.833Z,96.89
2017-10-17T07:50:49.830Z,97.18
2017-10-17T07:51:49.830Z,96.89
2017-10-17T07:52:49.829Z,96.61
2017-10-17T07:53:49.823Z,97.18
2017-10-17T07:54:49.824Z,97.09
2017-10-17T07:55:49.822Z,96.56
2017-10-17T07:56:49.821Z,96.32
2017-10-17T07:57:49.824Z,96.56
2017-10-17T07:58:49.822Z,95.89
2017-10-17T07:59:49.822Z,95.21
2017-10-17T08:00:49.822Z,95.21
2017-10-17T08:01:49.816Z,95.36
2017-10-17T08:02:49.816Z,94.59
2017-10-17T08:03:49.816Z,94.49
2017-10-17T08:04:49.815Z,93.54
2017-10-17T08:05:49.814Z,94.02
2017-10-17T08:06:49.814Z,93.92
2017-10-17T08:07:49.814Z,94.12
2017-10-17T08:08:49.812Z,94.02
2017-10-17T08:09:49.816Z,94.21
2017-10-17T08:10:49.817Z,94.40
2017-10-17T08:11:49.816Z,93.54
2017-10-17T08:12:49.815Z,92.91
2017-10-17T08:13:49.814Z,92.82
2017-10-17T08:14:49.816Z,92.38
2017-10-17T08:15:49.815Z,92.10
2017-10-17T08:16:49.814Z,91.75
2017-10-17T08:17:49.810Z,90.51
2017-10-17T08:18:49.810Z,89.45
2017-10-17T08:19:49.811Z,89.16
2017-10-17T08:20:49.809Z,89.02
2017-10-17T08:21:49.810Z,89.54
2017-10-17T08:22:49.812Z,89.16
2017-10-17T08:23:49.813Z,89.45
2017-10-17T08:24:49.812Z,89.69
2017-10-17T08:25:49.817Z,89.60
2017-10-17T08:26:49.817Z,89.60
2017-10-17T08:27:49.820Z,89.89
2017-10-17T08:28:49.820Z,89.74
2017-10-17T08:29:49.819Z,89.16
2017-10-17T08:30:49.825Z,88.73
2017-10-17T08:31:49.822Z,88.34
2017-10-17T08:32:49.823Z,87.04
2017-10-17T08:33:49.821Z,86.42
2017-10-17T08:34:49.821Z,86.42
2017-10-17T08:35:49.822Z,86.85
2017-10-17T08:36:49.822Z,87.62
2017-10-17T08:37:49.824Z,88.06
2017-10-17T08:38:49.824Z,87.15
2017-10-17T08:39:49.826Z,87.15
2017-10-17T08:40:49.827Z,87.48
2017-10-17T08:41:49.832Z,87.48
2017-10-17T08:42:49.834Z,86.99
2017-10-17T08:43:49.836Z,86.65
2017-10-17T08:44:49.836Z,85.98
2017-10-17T08:45:49.837Z,85.78
2017-10-17T08:46:49.845Z,84.58
2017-10-17T08:47:49.842Z,84.19
2017-10-17T08:48:49.842Z,83.52
2017-10-17T08:49:49.840Z,83.62
2017-10-17T08:50:49.842Z,84.10
2017-10-17T08:51:49.854Z,82.94
2017-10-17T08:52:49.845Z,83.33
2017-10-17T08:53:49.849Z,83.08
2017-10-17T08:54:49.849Z,81.68
2017-10-17T08:55:49.852Z,81.39
2017-10-17T08:56:49.853Z,81.20
2017-10-17T08:57:49.860Z,80.43
2017-10-17T08:58:49.863Z,80.52
2017-10-17T08:59:49.865Z,80.81
2017-10-17T09:00:49.867Z,80.23
2017-10-17T09:01:49.865Z,80.33
2017-10-17T09:02:49.869Z,79.79
2017-10-17T09:03:49.871Z,79.85
2017-10-17T09:04:49.873Z,80.62
2017-10-17T09:05:49.881Z,80.04
2017-10-17T09:06:49.886Z,80.14
2017-10-17T09:07:49.887Z,80.43
2017-10-17T09:08:49.912Z,80.62
2017-10-17T09:09:49.892Z,80.08
2017-10-17T09:10:49.896Z,80.04
2017-10-17T09:11:49.902Z,79.60
2017-10-17T09:12:49.901Z,79.54
2017-10-17T09:13:49.901Z,79.06
2017-10-17T09:14:49.905Z,78.09
2017-10-17T09:15:49.907Z,77.65
2017-10-17T09:16:49.909Z,77.94
2017-10-17T09:17:49.914Z,78.00
2017-10-17T09:18:49.917Z,77.84
2017-10-17T09:19:49.921Z,77.36
2017-10-17T09:20:49.923Z,77.46
2017-10-17T09:21:49.931Z,76.68
2017-10-17T09:22:49.937Z,76.84
2017-10-17T09:23:49.939Z,77.28
2017-10-17T09:24:49.943Z,77.96
2017-10-17T09:25:49.948Z,78.58
2017-10-17T09:26:49.952Z,78.61
2017-10-17T09:27:49.957Z,78.00
2017-10-17T09:28:49.958Z,78.09
2017-10-17T09:29:49.957Z,78.09
2017-10-17T09:30:49.964Z,77.81
2017-10-17T09:31:49.966Z,77.42
2017-10-17T09:32:49.974Z,77.36
2017-10-17T09:33:49.975Z,77.21
2017-10-17T09:34:49.978Z,77.30
2017-10-17T09:35:49.984Z,76.09
2017-10-17T09:36:49.987Z,75.84
2017-10-17T09:37:49.996Z,74.25
2017-10-17T09:38:50.000Z,74.68
2017-10-17T09:39:50.004Z,74.19
2017-10-17T09:40:50.009Z,74.00
2017-10-17T09:41:50.013Z,73.25
2017-10-17T09:42:50.018Z,73.95
2017-10-17T09:43:50.022Z,75.59
2017-10-17T09:44:50.027Z,76.36
2017-10-17T09:45:50.028Z,76.84
2017-10-17T09:46:50.033Z,76.78
2017-10-17T09:47:50.037Z,76.53
2017-10-17T09:48:50.046Z,75.47
2017-10-17T09:49:50.046Z,75.24
2017-10-17T09:50:50.050Z,74.95
2017-10-17T09:51:50.055Z,75.12
2017-10-17T09:52:50.060Z,74.83
2017-10-17T09:53:50.067Z,73.32
2017-10-17T09:54:50.073Z,73.22
2017-10-17T09:55:50.078Z,72.55
2017-10-17T09:56:50.082Z,72.55
2017-10-17T09:57:50.087Z,72.10
2017-10-17T09:58:50.095Z,71.00
2017-10-17T09:59:50.097Z,71.64
2017-10-17T10:00:50.102Z,71.94
2017-10-17T10:01:50.104Z,72.71
2017-10-17T10:02:50.108Z,73.54
2017-10-17T10:03:50.114Z,73.93
2017-10-17T10:04:50.117Z,73.90
2017-10-17T10:05:50.127Z,73.32
2017-10-17T10:06:50.133Z,72.30
2017-10-17T10:07:50.138Z,71.66
2017-10-17T10:08:50.142Z,71.17
2017-10-17T10:09:50.143Z,70.50
2017-10-17T10:10:50.155Z,70.56
2017-10-17T10:11:50.155Z,70.23
2017-10-17T10:12:50.159Z,70.50
2017-10-17T10:13:50.164Z,70.32
2017-10-17T10:14:50.170Z,70.90
2017-10-17T10:15:50.176Z,71.45
2017-10-17T10:16:50.181Z,71.70
2017-10-17T10:17:50.191Z,72.84
2017-10-17T10:18:50.194Z,72.06
2017-10-17T10:19:50.204Z,72.14
2017-10-17T10:20:50.206Z,70.98
2017-10-17T10:21:50.211Z,70.62
2017-10-17T10:22:50.217Z,71.20
2017-10-17T10:23:50.223Z,70.84
2017-10-17T10:24:50.229Z,70.81
2017-10-17T10:25:50.228Z,71.10
2017-10-17T10:26:50.236Z,71.88
2017-10-17T10:27:50.240Z,72.67
2017-10-17T10:28:50.244Z,73.21
2017-10-17T10:29:50.251Z,73.99
2017-10-17T10:30:50.255Z,74.95
2017-10-17T10:31:50.261Z,75.59
2017-10-17T10:32:50.266Z,76.13
2017-10-17T10:33:50.275Z,77.23
2017-10-17T10:34:50.280Z,77.07
2017-10-17T10:35:50.287Z,76.63
2017-10-17T10:36:50.291Z,75.95
2017-10-17T10:37:50.296Z,75.57
2017-10-17T10:38:50.305Z,74.93
2017-10-17T10:39:50.306Z,75.06
2017-10-17T10:40:50.310Z,74.00
2017-10-17T10:41:50.325Z,73.73
2017-10-17T10:42:50.321Z,74.08
2017-10-17T10:43:50.322Z,74.76
2017-10-17T10:44:50.330Z,75.22
2017-10-17T10:45:50.333Z,74.76
2017-10-17T10:46:50.336Z,74.69
2017-10-17T10:47:50.341Z,75.22
2017-10-17T10:48:50.346Z,74.38
2017-10-17T10:49:50.356Z,73.94
2017-10-17T10:50:50.367Z,73.09
2017-10-17T10:51:50.365Z,73.83
2017-10-17T10:52:50.371Z,74.31
2017-10-17T10:53:50.383Z,74.12
2017-10-17T10:54:50.404Z,74.72
2017-10-17T10:55:50.387Z,76.01
2017-10-17T10:56:50.390Z,75.53
2017-10-17T10:57:50.391Z,75.67
2017-10-17T10:58:50.396Z,75.18
2017-10-17T10:59:50.402Z,74.83
2017-10-17T11:00:50.407Z,75.35
2017-10-17T11:01:50.411Z,74.58
2017-10-17T11:02:50.417Z,74.35
2017-10-17T11:03:50.422Z,74.08
2017-10-17T11:04:50.426Z,75.59
2017-10-17T11:05:50.435Z,76.75
2017-10-17T11:06:50.440Z,77.90
2017-10-17T11:07:50.445Z,77.65
2017-10-17T11:08:50.461Z,78.52
2017-10-17T11:09:50.453Z,78.61
2017-10-17T11:10:50.461Z,78.71
2017-10-17T11:11:50.464Z,78.21
2017-10-17T11:12:50.466Z,77.53
2017-10-17T11:13:50.468Z,77.48
2017-10-17T11:14:50.476Z,76.22
2017-10-17T11:15:50.480Z,75.54
2017-10-17T11:16:50.482Z,75.54
2017-10-17T11:17:50.484Z,75.74
2017-10-17T11:18:50.489Z,75.06
2017-10-17T11:19:50.497Z,74.93
2017-10-17T11:20:50.498Z,74.83
2017-10-17T11:21:50.505Z,75.12
2017-10-17T11:22:50.511Z,75.99
2017-10-17T11:23:50.516Z,76.18
2017-10-17T11:24:50.525Z,76.57
2017-10-17T11:25:50.523Z,76.57
2017-10-17T11:26:50.527Z,76.28
2017-10-17T11:27:50.531Z,76.86
2017-10-17T11:28:50.535Z,76.67
2017-10-17T11:29:50.533Z,77.48
2017-10-17T11:30:50.539Z,76.80
2017-10-17T11:31:50.545Z,76.76
2017-10-17T11:32:50.548Z,76.37
2017-10-17T11:33:50.550Z,76.67
2017-10-17T11:34:50.554Z,76.22
2017-10-17T11:35:50.557Z,76.32
2017-10-17T11:36:50.563Z,76.51
2017-10-17T11:37:50.568Z,75.51
2017-10-17T11:38:50.572Z,75.85
2017-10-17T11:39:50.576Z,76.82
2017-10-17T11:40:50.580Z,76.76
2017-10-17T11:41:50.583Z,77.30
2017-10-17T11:42:50.586Z,76.86
2017-10-17T11:43:50.591Z,77.11
2017-10-17T11:44:50.593Z,77.63
2017-10-17T11:45:50.594Z,76.95
2017-10-17T11:46:50.598Z,76.86
2017-10-17T11:47:50.601Z,76.95
2017-10-17T11:48:50.605Z,77.05
2017-10-17T11:49:50.608Z,76.42
2017-10-17T11:50:50.612Z,77.48
2017-10-17T11:51:50.616Z,77.19
2017-10-17T11:52:50.618Z,76.32
2017-10-17T11:53:50.626Z,76.80
2017-10-17T11:54:50.632Z,76.22
2017-10-17T11:55:50.633Z,76.12
2017-10-17T11:56:50.636Z,76.22
2017-10-17T11:57:50.646Z,76.47
2017-10-17T11:58:50.645Z,76.28
2017-10-17T11:59:50.648Z,76.67
2017-10-17T12:00:50.651Z,76.80
2017-10-17T12:01:50.651Z,76.37
2017-10-17T12:02:50.654Z,77.05
2017-10-17T12:03:50.658Z,77.05
2017-10-17T12:04:50.662Z,77.00
2017-10-17T12:05:50.664Z,76.42
2017-10-17T12:06:50.669Z,76.03
2017-10-17T12:07:50.672Z,76.42
2017-10-17T12:08:50.675Z,75.97
2017-10-17T12:09:50.683Z,75.84
2017-10-17T12:10:50.686Z,75.16
2017-10-17T12:11:50.692Z,75.26
2017-10-17T12:12:50.693Z,75.06
2017-10-17T12:13:50.693Z,75.26
2017-10-17T12:14:50.696Z,74.96
2017-10-17T12:15:50.706Z,74.87
2017-10-17T12:16:50.703Z,74.77
2017-10-17T12:17:50.712Z,75.74
2017-10-17T12:18:50.714Z,75.54
2017-10-17T12:19:50.717Z,75.16
2017-10-17T12:20:50.720Z,75.16
2017-10-17T12:21:50.726Z,75.54
2017-10-17T12:22:50.729Z,74.96
2017-10-17T12:23:50.732Z,75.16
2017-10-17T12:24:50.735Z,75.00
2017-10-17T12:25:50.735Z,75.06
2017-10-17T12:26:50.738Z,75.10
2017-10-17T12:27:50.742Z,75.10
2017-10-17T12:28:50.751Z,74.90
2017-10-17T12:29:50.750Z,74.90
2017-10-17T12:30:50.752Z,74.42
2017-10-17T12:31:50.755Z,75.10
2017-10-17T12:32:50.759Z,74.52
2017-10-17T12:33:50.767Z,74.32
2017-10-17T12:34:50.771Z,74.04
2017-10-17T12:35:50.777Z,74.23
2017-10-17T12:36:50.784Z,74.13
2017-10-17T12:37:50.781Z,74.71
2017-10-17T12:38:50.785Z,74.52
2017-10-17T12:39:50.788Z,74.23
2017-10-17T12:40:50.790Z,74.42
2017-10-17T12:41:50.796Z,74.42
2017-10-17T12:42:50.795Z,74.81
2017-10-17T12:43:50.797Z,74.71
2017-10-17T12:44:50.800Z,75.10
2017-10-17T12:45:50.805Z,75.58
2017-10-17T12:46:50.807Z,75.10
2017-10-17T12:47:50.810Z,74.71
2017-10-17T12:48:50.815Z,75.00
2017-10-17T12:49:50.820Z,75.10
2017-10-17T12:50:50.825Z,75.26
2017-10-17T12:51:50.827Z,75.00
2017-10-17T12:52:50.831Z,75.78